sensor_id;sensor_type;location;lat;lon;timestamp;pressure;altitude;pressure_sealevel;temperature;humidity
61740;BME280;47645;45.288;12.038;2022-09-09T00:04:13;1011.7971456105375;;;22.5833984375;75.58240517165997
61740;BME280;47645;45.288;12.038;2022-09-09T00:14:13;1011.7159738000037;;;21.997265625;87.09098515940927
61740;BME280;47645;45.288;12.038;2022-09-09T00:24:11;1011.594999394749;;;21.686328125;82.52319146199218
61740;BME280;47645;45.288;12.038;2022-09-09T00:34:13;1011.5658279583039;;;21.90546875;83.06882361923576
61740;BME280;47645;45.288;12.038;2022-09-09T00:44:23;1011.5932105458664;;;21.997265625;82.85004148582927
61740;BME280;47645;45.288;12.038;2022-09-09T00:54:24;1011.6214005147698;;;22.0583984375;77.67809796564555
61740;BME280;47645;45.288;12.038;2022-09-09T01:04:20;1011.5455758072519;;;21.5333984375;83.18504953358375
61740;BME280;47645;45.288;12.038;2022-09-09T01:14:27;1011.5821357384478;;;21.492578125;85.16019356482575
61740;BME280;47645;45.288;12.038;2022-09-09T01:24:22;1011.6653112763931;;;21.589453125;83.03180882765571
61740;BME280;47645;45.288;12.038;2022-09-09T01:34:17;1011.538601652295;;;21.4263671875;85.39509591238914
61740;BME280;47645;45.288;12.038;2022-09-09T01:44:19;1011.4888398927958;;;21.49765625;87.78828735517901
61740;BME280;47645;45.288;12.038;2022-09-09T01:54:21;1011.4776110329946;;;21.1408203125;87.35834008955247
61740;BME280;47645;45.288;12.038;2022-09-09T02:04:31;1011.497057032497;;;21.0083984375;91.87561419745327
61740;BME280;47645;45.288;12.038;2022-09-09T02:14:26;1011.427330081931;;;20.559765625;95.99626069269006
61740;BME280;47645;45.288;12.038;2022-09-09T02:24:25;1011.329092098966;;;20.3916015625;97.687012258809
61740;BME280;47645;45.288;12.038;2022-09-09T02:34:25;1011.2381595641568;;;20.228515625;98.1497201989416
61740;BME280;47645;45.288;12.038;2022-09-09T02:44:26;1011.2999310678334;;;20.1060546875;97.99773258254808
61740;BME280;47645;45.288;12.038;2022-09-09T02:54:29;1011.2328369383335;;;20.2232421875;94.45025081600878
61740;BME280;47645;45.288;12.038;2022-09-09T03:04:29;1011.2726971290045;;;19.94296875;97.40832248820197
61740;BME280;47645;45.288;12.038;2022-09-09T03:14:31;1011.2132468668174;;;19.9685546875;96.90968397407612
61740;BME280;47645;45.288;12.038;2022-09-09T03:24:31;1011.1154697993812;;;19.92265625;97.51712752699899
61740;BME280;47645;45.288;12.038;2022-09-09T03:34:32;1011.1341601001617;;;19.8869140625;97.66408334646705
61740;BME280;47645;45.288;12.038;2022-09-09T03:44:33;1011.1747759549289;;;19.723828125;98.98383614623023
61740;BME280;47645;45.288;12.038;2022-09-09T03:54:34;1011.1186579243482;;;19.6728515625;98.75943334958552
61740;BME280;47645;45.288;12.038;2022-09-09T04:04:35;1011.0166447230449;;;19.7798828125;97.76357048205915
61740;BME280;47645;45.288;12.038;2022-09-09T04:14:37;1011.0740708775106;;;19.6015625;99.05341603366963
61740;BME280;47645;45.288;12.038;2022-09-09T04:24:38;1010.9718718116184;;;19.540234375;99.31554701208553
61740;BME280;47645;45.288;12.038;2022-09-09T04:34:39;1010.8994901947508;;;19.5861328125;98.40305066617712
61740;BME280;47645;45.288;12.038;2022-09-09T04:44:41;1010.8512542603357;;;19.723828125;97.32165383637728
61740;BME280;47645;45.288;12.038;2022-09-09T04:54:41;1010.8968609730173;;;20.024609375;95.01543508147262
61740;BME280;47645;45.288;12.038;2022-09-09T05:04:43;1010.8466099963251;;;19.8767578125;96.93677417361512
61740;BME280;47645;45.288;12.038;2022-09-09T05:14:44;1010.9224399095474;;;19.94296875;96.77237616036435
61740;BME280;47645;45.288;12.038;2022-09-09T05:24:45;1010.9438830879635;;;20.25390625;95.3474580280188
61740;BME280;47645;45.288;12.038;2022-09-09T05:34:47;1011.0567759135942;;;20.4578125;95.02194567573615
61740;BME280;47645;45.288;12.038;2022-09-09T05:44:47;1011.0830509427572;;;20.676953125;94.50885108948766
61740;BME280;47645;45.288;12.038;2022-09-09T05:54:48;1011.2367813979675;;;21.08984375;92.72039963020916
61740;BME280;47645;45.288;12.038;2022-09-09T06:04:50;1011.2925946307855;;;21.3599609375;92.69827383418831
61740;BME280;47645;45.288;12.038;2022-09-09T06:14:52;1011.2777462637346;;;21.6302734375;91.89225149613945
61740;BME280;47645;45.288;12.038;2022-09-09T06:24:53;1011.2711181882867;;;21.7474609375;91.71301323614996
61740;BME280;47645;45.288;12.038;2022-09-09T06:34:53;1011.2308467307993;;;22.2775390625;88.48991580996282
61740;BME280;47645;45.288;12.038;2022-09-09T06:44:55;1011.1670405957962;;;22.639453125;88.1233648278773
61740;BME280;47645;45.288;12.038;2022-09-09T06:54:55;1011.0744779870884;;;22.8943359375;86.43893698337679
61740;BME280;47645;45.288;12.038;2022-09-09T07:04:59;1010.9714707574226;;;23.07265625;85.62431393844231
61740;BME280;47645;45.288;12.038;2022-09-09T07:14:58;1010.9113961317281;;;23.28671875;85.85167532829404
61740;BME280;47645;45.288;12.038;2022-09-09T07:24:59;1010.8981211986119;;;23.16953125;86.6615025414905
61740;BME280;47645;45.288;12.038;2022-09-09T07:35:01;1010.8848726773437;;;23.444921875;85.96411640435309
61740;BME280;47645;45.288;12.038;2022-09-09T07:45:02;1010.7526882943308;;;24.0462890625;83.84865547468982
61740;BME280;47645;45.288;12.038;2022-09-09T07:55:03;1010.7405475544851;;;24.4541015625;81.90889257542584
61740;BME280;47645;45.288;12.038;2022-09-09T08:00:05;1010.8126764926908;;;24.785546875;79.88881220812202
61740;BME280;47645;45.288;12.038;2022-09-09T08:10:08;1010.9622572964427;;;25.3513671875;77.03920633296428
61740;BME280;47645;45.288;12.038;2022-09-09T08:20:09;1011.0704422429449;;;25.8099609375;75.02321726512622
61740;BME280;47645;45.288;12.038;2022-09-09T08:30:11;1011.0910847487135;;;25.9935546875;74.60475572037441
61740;BME280;47645;45.288;12.038;2022-09-09T08:40:22;1011.1586021835834;;;25.9732421875;73.79242512129532
61740;BME280;47645;45.288;12.038;2022-09-09T08:50:23;1011.198233150249;;;26.2076171875;71.10221055297797
61740;BME280;47645;45.288;12.038;2022-09-09T09:00:13;1011.1952652250382;;;26.7326171875;67.9320217631671
61740;BME280;47645;45.288;12.038;2022-09-09T09:10:24;1011.2362414243512;;;26.2791015625;66.13899227159648
61740;BME280;47645;45.288;12.038;2022-09-09T09:20:20;1011.1779651091324;;;26.554296875;64.46128452747229
61740;BME280;47645;45.288;12.038;2022-09-09T09:30:21;1011.1165237005215;;;26.758203125;62.98495742041632
61740;BME280;47645;45.288;12.038;2022-09-09T09:40:18;1011.0706186228656;;;27.089453125;61.31644138167368
61740;BME280;47645;45.288;12.038;2022-09-09T09:50:19;1010.9294222149734;;;27.4107421875;55.58175017629299
61740;BME280;47645;45.288;12.038;2022-09-09T10:00:21;1010.8204113289341;;;27.594140625;54.611624354178375
61740;BME280;47645;45.288;12.038;2022-09-09T10:10:30;1010.8969978120933;;;28.1599609375;55.628691402779815
61740;BME280;47645;45.288;12.038;2022-09-09T10:20:32;1010.8035335699064;;;28.302734375;55.36009366050084
61740;BME280;47645;45.288;12.038;2022-09-09T10:30:33;1010.9998868993839;;;26.7326171875;64.55124723445383
61740;BME280;47645;45.288;12.038;2022-09-09T10:40:32;1010.9190700487627;;;26.0751953125;68.54440423778051
61740;BME280;47645;45.288;12.038;2022-09-09T10:50:45;1011.2412925351274;;;26.6052734375;68.21313827761357
61740;BME280;47645;45.288;12.038;2022-09-09T11:00:37;1011.3612196685898;;;26.7326171875;66.8693244186932
61740;BME280;47645;45.288;12.038;2022-09-09T11:10:38;1011.6908321366609;;;26.034375;68.57681999115401
61740;BME280;47645;45.288;12.038;2022-09-09T11:20:35;1011.2793404677489;;;25.7642578125;69.67156381807371
61740;BME280;47645;45.288;12.038;2022-09-09T11:30:38;1011.4143348495174;;;26.02421875;70.48996143235557
61740;BME280;47645;45.288;12.038;2022-09-09T11:40:36;1011.0649433859481;;;26.3197265625;71.0975021022869
61740;BME280;47645;45.288;12.038;2022-09-09T11:50:37;1010.5074262697478;;;27.058984375;69.7897676282377
61740;BME280;47645;45.288;12.038;2022-09-09T12:00:39;1010.4876196731004;;;28.4046875;63.50606641782018
61740;BME280;47645;45.288;12.038;2022-09-09T12:10:39;1010.6690672762513;;;28.8279296875;60.166248323048094
61740;BME280;47645;45.288;12.038;2022-09-09T12:20:53;1011.0211539998661;;;28.0529296875;61.3009485401893
61740;BME280;47645;45.288;12.038;2022-09-09T12:30:49;1010.9145407305442;;;28.001953125;62.50592259808229
61740;BME280;47645;45.288;12.038;2022-09-09T12:40:54;1011.262970982791;;;28.001953125;63.20763121450333
61740;BME280;47645;45.288;12.038;2022-09-09T12:50:53;1011.1743689254898;;;26.8908203125;66.26620425040632
61740;BME280;47645;45.288;12.038;2022-09-09T13:00:52;1011.3179898506115;;;26.83984375;66.32058128824961
61740;BME280;47645;45.288;12.038;2022-09-09T13:10:53;1011.593153529713;;;26.45234375;69.1452640641775
61740;BME280;47645;45.288;12.038;2022-09-09T13:20:50;1011.0283490254848;;;24.7701171875;71.64869396308093
61740;BME280;47645;45.288;12.038;2022-09-09T13:30:59;1010.9581944543283;;;24.418359375;75.24948487412985
61740;BME280;47645;45.288;12.038;2022-09-09T13:40:54;1010.6918415528463;;;26.228125;67.26165801973451
61740;BME280;47645;45.288;12.038;2022-09-09T13:50:55;1010.5648464661451;;;26.66640625;65.25934553176839
61740;BME280;47645;45.288;12.038;2022-09-09T14:00:55;1010.5394214899961;;;27.0947265625;64.37361360460667
61740;BME280;47645;45.288;12.038;2022-09-09T14:10:56;1010.4422761931087;;;28.51171875;59.54318363381743
61740;BME280;47645;45.288;12.038;2022-09-09T14:20:59;1010.4763638076554;;;29.3376953125;56.28977855759695
61740;BME280;47645;45.288;12.038;2022-09-09T14:30:59;1010.5365738962146;;;29.3681640625;56.99034118222961
61740;BME280;47645;45.288;12.038;2022-09-09T14:41:03;1010.4089191276763;;;29.5619140625;57.895076698382134
61740;BME280;47645;45.288;12.038;2022-09-09T14:51:08;1010.4560607745634;;;29.5416015625;57.33445054642088
61740;BME280;47645;45.288;12.038;2022-09-09T15:01:05;1010.5165937081002;;;29.11328125;56.88840960827501
61740;BME280;47645;45.288;12.038;2022-09-09T15:11:06;1010.5981559100896;;;29.419140625;56.11734381429011
61740;BME280;47645;45.288;12.038;2022-09-09T15:21:07;1010.5379441897315;;;29.388671875;53.67807234060038
61740;BME280;47645;45.288;12.038;2022-09-09T15:31:12;1010.5122567886453;;;29.011328125;54.513469514359095
61740;BME280;47645;45.288;12.038;2022-09-09T15:41:10;1010.4923503739502;;;28.7921875;55.3574581881302
61740;BME280;47645;45.288;12.038;2022-09-09T15:51:12;1010.468503102497;;;28.9705078125;55.415857831618794
61740;BME280;47645;45.288;12.038;2022-09-09T16:01:13;1010.5463882761713;;;28.2619140625;56.324252139874766
61740;BME280;47645;45.288;12.038;2022-09-09T16:11:18;1010.6120296670794;;;28.29765625;56.5052306692534
61740;BME280;47645;45.288;12.038;2022-09-09T16:21:18;1010.5687778850848;;;27.594140625;58.6531473701764
61740;BME280;47645;45.288;12.038;2022-09-09T16:31:20;1010.5202995928117;;;27.573828125;60.88602062051068
61740;BME280;47645;45.288;12.038;2022-09-09T16:41:20;1010.5660131606218;;;26.7021484375;60.38409274731626
61740;BME280;47645;45.288;12.038;2022-09-09T16:51:23;1010.5905614793221;;;26.65625;62.69682395927848
61740;BME280;47645;45.288;12.038;2022-09-09T17:01:26;1010.6752686002266;;;27.058984375;62.29905736333226
61740;BME280;47645;45.288;12.038;2022-09-09T17:11:27;1010.6464375528013;;;26.844921875;62.87344582885873
61740;BME280;47645;45.288;12.038;2022-09-09T17:21:27;1010.6936325772818;;;26.23828125;65.02235020759615
61740;BME280;47645;45.288;12.038;2022-09-09T17:31:28;1010.8226218162138;;;25.9017578125;66.18709571991769
61740;BME280;47645;45.288;12.038;2022-09-09T17:41:30;1010.9410698983868;;;25.65703125;66.21368077803696
61740;BME280;47645;45.288;12.038;2022-09-09T17:51:32;1011.1078991461882;;;25.116796875;68.27856821538549
61740;BME280;47645;45.288;12.038;2022-09-09T18:01:33;1011.1962834370908;;;25.126953125;68.10622704765355
61740;BME280;47645;45.288;12.038;2022-09-09T18:11:35;1011.4133451243744;;;24.5357421875;70.01803675234554
61740;BME280;47645;45.288;12.038;2022-09-09T18:21:35;1011.4132056244474;;;24.4388671875;69.90257217955958
61740;BME280;47645;45.288;12.038;2022-09-09T18:31:37;1011.5922981840068;;;24.3828125;69.61210043442382
61740;BME280;47645;45.288;12.038;2022-09-09T18:41:38;1011.7453690983361;;;23.5111328125;72.14474991459645
61740;BME280;47645;45.288;12.038;2022-09-09T18:51:42;1011.8243040240079;;;23.6435546875;71.72477102827405
61740;BME280;47645;45.288;12.038;2022-09-09T19:01:39;1011.9092884817137;;;23.5060546875;71.70943468912525
61740;BME280;47645;45.288;12.038;2022-09-09T19:11:41;1011.9482378376337;;;23.8322265625;70.17262635987208
61740;BME280;47645;45.288;12.038;2022-09-09T19:21:43;1011.9426883421668;;;23.592578125;70.63247130081311
61740;BME280;47645;45.288;12.038;2022-09-09T19:31:44;1012.0412643792561;;;23.5162109375;70.74800209108193
61740;BME280;47645;45.288;12.038;2022-09-09T19:41:44;1012.030899443034;;;23.07265625;72.44664215161082
61740;BME280;47645;45.288;12.038;2022-09-09T19:51:46;1012.0842547165948;;;22.4966796875;77.54938312227296
61740;BME280;47645;45.288;12.038;2022-09-09T20:01:47;1012.2022418596042;;;21.6455078125;84.49275079283886
61740;BME280;47645;45.288;12.038;2022-09-09T20:11:49;1012.2664808033911;;;21.47734375;86.17973273102459
61740;BME280;47645;45.288;12.038;2022-09-09T20:21:52;1012.3261286388085;;;21.4619140625;86.81396691767121
61740;BME280;47645;45.288;12.038;2022-09-09T20:31:51;1012.5303749508656;;;21.2427734375;86.63376204547801
61740;BME280;47645;45.288;12.038;2022-09-09T20:41:53;1012.5276839027215;;;21.2630859375;86.4135234492863
61740;BME280;47645;45.288;12.038;2022-09-09T20:51:53;1012.696350155586;;;21.084765625;84.96942747859345
61740;BME280;47645;45.288;12.038;2022-09-09T21:01:56;1012.6676207431221;;;20.7025390625;85.67970414679492
61740;BME280;47645;45.288;12.038;2022-09-09T21:11:56;1012.6033608733183;;;20.355859375;86.43135685130562
61740;BME280;47645;45.288;12.038;2022-09-09T21:22:03;1012.5553033947695;;;20.773828125;83.16790736653067
61740;BME280;47645;45.288;12.038;2022-09-09T21:32:02;1012.6286311163119;;;20.666796875;83.34002434488461
61740;BME280;47645;45.288;12.038;2022-09-09T21:42:03;1012.4743025188204;;;20.7279296875;82.93702312733329
61740;BME280;47645;45.288;12.038;2022-09-09T21:52:07;1012.5009660162739;;;20.7228515625;82.06320776822922
61740;BME280;47645;45.288;12.038;2022-09-09T22:02:02;1012.55889255158;;;21.5740234375;76.97691722331673
61740;BME280;47645;45.288;12.038;2022-09-09T22:12:06;1012.5919423438168;;;21.5537109375;76.56481628455943
61740;BME280;47645;45.288;12.038;2022-09-09T22:22:04;1012.7786356099946;;;21.6607421875;75.39464256744726
61740;BME280;47645;45.288;12.038;2022-09-09T22:32:07;1012.684186826867;;;21.30390625;78.92967095787638
61740;BME280;47645;45.288;12.038;2022-09-09T22:42:07;1013.148214744133;;;21.9513671875;74.90967575517045
61740;BME280;47645;45.288;12.038;2022-09-09T22:52:10;1012.8791393718815;;;21.6404296875;74.27032580216205
61740;BME280;47645;45.288;12.038;2022-09-09T23:02:09;1012.8177146680474;;;20.473046875;89.48331574443988
61740;BME280;47645;45.288;12.038;2022-09-09T23:12:11;1013.2038137268567;;;21.2224609375;78.44308490650296
61740;BME280;47645;45.288;12.038;2022-09-09T23:22:14;1013.0304587233935;;;20.27421875;87.93306089671393
61740;BME280;47645;45.288;12.038;2022-09-09T23:32:16;1013.0152297086947;;;19.84609375;91.79117828944504
61740;BME280;47645;45.288;12.038;2022-09-09T23:42:14;1013.1873521639;;;20.0908203125;86.8280845844727
61740;BME280;47645;45.288;12.038;2022-09-09T23:52:16;1013.1039953114914;;;20.1060546875;87.61106574864695
